createdAt,value
2017-07-26T00:00:43.244Z,14.30
2017-07-26T00:03:10.791Z,14.30
2017-07-26T00:05:38.715Z,14.30
2017-07-26T00:08:06.222Z,14.30
2017-07-26T00:10:33.818Z,14.30
2017-07-26T00:13:01.327Z,14.30
2017-07-26T00:15:28.839Z,14.40
2017-07-26T00:17:56.375Z,14.40
2017-07-26T00:20:23.897Z,14.40
2017-07-26T00:22:51.408Z,14.40
2017-07-26T00:25:18.948Z,14.40
2017-07-26T00:27:46.453Z,14.40
2017-07-26T00:30:13.959Z,14.30
2017-07-26T00:32:41.890Z,14.40
2017-07-26T00:35:09.390Z,14.40
2017-07-26T00:37:37.291Z,14.30
2017-07-26T00:40:04.835Z,14.40
2017-07-26T00:42:32.360Z,14.30
2017-07-26T00:44:59.878Z,14.30
2017-07-26T00:47:27.420Z,14.30
2017-07-26T00:49:54.935Z,14.30
2017-07-26T00:52:22.437Z,14.30
2017-07-26T00:54:49.971Z,14.30
2017-07-26T00:57:17.881Z,14.40
2017-07-26T00:59:45.405Z,14.40
2017-07-26T01:02:13.343Z,14.40
2017-07-26T01:04:40.852Z,14.40
2017-07-26T01:07:08.361Z,14.40
2017-07-26T01:09:36.007Z,14.50
2017-07-26T01:12:03.542Z,14.40
2017-07-26T01:14:31.052Z,14.40
2017-07-26T01:16:58.577Z,14.40
2017-07-26T01:19:26.092Z,14.40
2017-07-26T01:21:53.622Z,14.40
2017-07-26T01:24:21.158Z,14.50
2017-07-26T01:26:48.674Z,14.40
2017-07-26T01:29:16.579Z,14.50
2017-07-26T01:31:44.149Z,14.50
2017-07-26T01:34:11.659Z,14.40
2017-07-26T01:36:39.574Z,14.40
2017-07-26T01:39:07.123Z,14.50
2017-07-26T01:41:34.630Z,14.40
2017-07-26T01:44:02.134Z,14.40
2017-07-26T01:46:29.682Z,14.40
2017-07-26T01:48:57.190Z,14.40
2017-07-26T01:51:24.706Z,14.40
2017-07-26T01:53:52.250Z,14.40
2017-07-26T01:56:19.763Z,14.40
2017-07-26T01:58:47.299Z,14.40
2017-07-26T02:01:14.827Z,14.40
2017-07-26T02:03:42.339Z,14.40
2017-07-26T02:06:09.855Z,14.40
2017-07-26T02:08:37.809Z,14.30
2017-07-26T02:11:05.315Z,14.40
2017-07-26T02:13:32.827Z,14.30
2017-07-26T02:16:00.368Z,14.30
2017-07-26T02:18:27.879Z,14.30
2017-07-26T02:20:55.383Z,14.40
2017-07-26T02:23:22.910Z,14.40
2017-07-26T02:25:50.423Z,14.40
2017-07-26T02:28:17.930Z,14.40
2017-07-26T02:30:45.477Z,14.30
2017-07-26T02:33:12.992Z,14.30
2017-07-26T02:35:40.512Z,14.30
2017-07-26T02:38:08.048Z,14.30
2017-07-26T02:40:35.966Z,14.40
2017-07-26T02:43:03.479Z,14.40
2017-07-26T02:45:31.414Z,14.40
2017-07-26T02:47:58.924Z,14.40
2017-07-26T02:50:26.437Z,14.40
2017-07-26T02:52:53.975Z,14.40
2017-07-26T02:55:21.494Z,14.40
2017-07-26T02:57:48.998Z,14.40
2017-07-26T03:00:16.530Z,14.40
2017-07-26T03:02:44.039Z,14.40
2017-07-26T03:05:11.552Z,14.40
2017-07-26T03:07:39.086Z,14.40
2017-07-26T03:10:06.733Z,14.30
2017-07-26T03:12:34.243Z,14.30
2017-07-26T03:15:01.782Z,14.40
2017-07-26T03:17:29.294Z,14.40
2017-07-26T03:19:56.815Z,14.30
2017-07-26T03:22:24.363Z,14.30
2017-07-26T03:24:51.879Z,14.30
2017-07-26T03:27:19.396Z,14.30
2017-07-26T03:29:46.954Z,14.30
2017-07-26T03:32:14.503Z,14.30
2017-07-26T03:34:42.417Z,14.30
2017-07-26T03:37:09.942Z,14.30
2017-07-26T03:39:37.486Z,14.30
2017-07-26T03:42:05.394Z,14.30
2017-07-26T03:44:32.910Z,14.30
2017-07-26T03:47:00.938Z,14.30
2017-07-26T03:49:28.474Z,14.40
2017-07-26T03:51:56.015Z,14.30
2017-07-26T03:54:23.562Z,14.30
2017-07-26T03:56:51.471Z,14.30
2017-07-26T03:59:18.986Z,14.30
2017-07-26T04:01:46.546Z,14.30
2017-07-26T04:04:14.067Z,14.30
2017-07-26T04:06:41.583Z,14.30
2017-07-26T04:09:09.122Z,14.30
2017-07-26T04:11:36.638Z,14.30
2017-07-26T04:14:04.182Z,14.30
2017-07-26T04:16:31.757Z,14.40
2017-07-26T04:18:59.274Z,14.50
2017-07-26T04:21:27.186Z,14.50
2017-07-26T04:23:54.731Z,14.50
2017-07-26T04:26:22.246Z,14.50
2017-07-26T04:28:49.764Z,14.50
2017-07-26T04:31:17.321Z,14.60
2017-07-26T04:33:44.847Z,14.60
2017-07-26T04:36:12.367Z,14.50
2017-07-26T04:38:39.910Z,14.50
2017-07-26T04:41:07.418Z,14.60
2017-07-26T04:43:34.939Z,14.60
2017-07-26T04:46:02.475Z,14.60
2017-07-26T04:48:29.987Z,14.60
2017-07-26T04:50:57.509Z,14.60
2017-07-26T04:53:25.046Z,14.70
2017-07-26T04:55:52.572Z,14.70
2017-07-26T04:58:20.083Z,14.60
2017-07-26T05:00:47.622Z,14.60
2017-07-26T05:03:15.165Z,14.60
2017-07-26T05:05:43.079Z,14.60
2017-07-26T05:08:10.619Z,14.70
2017-07-26T05:10:38.158Z,14.70
2017-07-26T05:13:06.078Z,14.60
2017-07-26T05:15:33.615Z,14.60
2017-07-26T05:18:01.135Z,14.60
2017-07-26T05:20:28.650Z,14.60
2017-07-26T05:22:56.227Z,14.70
2017-07-26T05:25:23.739Z,14.60
2017-07-26T05:27:51.646Z,14.70
2017-07-26T05:30:19.183Z,14.70
2017-07-26T05:32:46.707Z,14.60
2017-07-26T05:35:14.220Z,14.60
2017-07-26T05:37:41.758Z,14.70
2017-07-26T05:40:09.287Z,14.70
2017-07-26T05:42:36.801Z,14.70
2017-07-26T05:45:04.342Z,14.60
2017-07-26T05:47:31.859Z,14.70
2017-07-26T05:49:59.371Z,14.70
2017-07-26T05:52:26.915Z,14.70
2017-07-26T05:54:54.431Z,14.70
2017-07-26T05:57:21.943Z,14.70
2017-07-26T05:59:49.492Z,14.70
2017-07-26T06:02:17.399Z,14.70
2017-07-26T06:04:44.933Z,14.70
2017-07-26T06:07:12.476Z,14.80
2017-07-26T06:09:40.389Z,14.80
2017-07-26T06:12:07.903Z,14.80
2017-07-26T06:14:35.442Z,14.80
2017-07-26T06:17:02.954Z,14.80
2017-07-26T06:19:30.495Z,14.90
2017-07-26T06:21:58.010Z,14.80
2017-07-26T06:24:25.530Z,14.90
2017-07-26T06:26:53.062Z,14.80
2017-07-26T06:29:21.746Z,14.90
2017-07-26T06:31:52.650Z,14.80
2017-07-26T06:34:20.735Z,14.80
2017-07-26T06:36:53.618Z,14.90
2017-07-26T06:39:23.915Z,14.90
2017-07-26T06:41:52.575Z,14.90
2017-07-26T06:44:20.119Z,15.00
2017-07-26T06:46:48.417Z,14.90
2017-07-26T06:49:15.947Z,14.90
2017-07-26T06:51:43.484Z,14.90
2017-07-26T06:54:11.048Z,14.90
2017-07-26T06:56:38.558Z,14.80
2017-07-26T06:59:06.103Z,14.70
2017-07-26T07:01:34.041Z,14.60
2017-07-26T07:04:01.550Z,14.60
2017-07-26T07:06:30.029Z,14.60
2017-07-26T07:08:57.542Z,14.70
2017-07-26T07:11:25.058Z,14.70
2017-07-26T07:13:53.454Z,14.80
2017-07-26T07:16:20.979Z,14.80
2017-07-26T07:18:48.879Z,14.90
2017-07-26T07:21:16.418Z,14.90
2017-07-26T07:23:43.931Z,15.00
2017-07-26T07:26:11.446Z,15.10
2017-07-26T07:28:38.982Z,15.10
2017-07-26T07:31:06.894Z,15.20
2017-07-26T07:33:34.411Z,15.20
2017-07-26T07:36:01.955Z,15.20
2017-07-26T07:38:29.478Z,15.10
2017-07-26T07:40:56.982Z,15.10
2017-07-26T07:43:24.534Z,15.10
2017-07-26T07:45:52.047Z,15.10
2017-07-26T07:48:19.558Z,15.00
2017-07-26T07:50:47.090Z,15.10
2017-07-26T07:53:14.613Z,15.10
2017-07-26T07:55:42.123Z,15.10
2017-07-26T07:58:09.655Z,15.10
2017-07-26T08:00:37.158Z,15.10
2017-07-26T08:03:04.666Z,15.10
2017-07-26T08:05:32.199Z,15.10
2017-07-26T08:08:00.139Z,15.10
2017-07-26T08:10:27.680Z,15.10
2017-07-26T08:12:55.215Z,15.10
2017-07-26T08:15:22.725Z,15.10
2017-07-26T08:17:50.230Z,15.10
2017-07-26T08:20:17.762Z,15.10
2017-07-26T08:22:45.662Z,15.10
2017-07-26T08:25:13.185Z,15.10
2017-07-26T08:27:40.732Z,15.10
2017-07-26T08:30:08.262Z,15.10
2017-07-26T08:32:35.790Z,15.00
2017-07-26T08:35:03.336Z,15.00
2017-07-26T08:37:30.854Z,15.10
2017-07-26T08:39:58.391Z,15.10
2017-07-26T08:42:25.942Z,15.10
2017-07-26T08:44:53.461Z,15.10
2017-07-26T08:47:21.019Z,15.10
2017-07-26T08:49:48.575Z,15.00
2017-07-26T08:52:16.174Z,15.00
2017-07-26T08:54:43.707Z,15.00
2017-07-26T08:57:11.262Z,14.90
2017-07-26T08:59:38.782Z,14.90
2017-07-26T09:02:06.291Z,14.90
2017-07-26T09:04:33.851Z,14.90
2017-07-26T09:07:01.388Z,14.80
2017-07-26T09:09:28.915Z,14.80
2017-07-26T09:11:56.458Z,14.80
2017-07-26T09:14:23.974Z,14.90
2017-07-26T09:16:51.546Z,14.90
2017-07-26T09:19:19.119Z,14.90
2017-07-26T09:21:47.051Z,15.00
2017-07-26T09:24:14.581Z,15.00
2017-07-26T09:26:42.110Z,15.00
2017-07-26T09:29:09.764Z,14.90
2017-07-26T09:31:37.312Z,14.90
2017-07-26T09:34:04.858Z,14.90
2017-07-26T09:36:32.378Z,14.90
2017-07-26T09:38:59.919Z,14.90
2017-07-26T09:41:27.483Z,14.90
2017-07-26T09:43:55.400Z,14.90
2017-07-26T09:46:23.005Z,14.90
2017-07-26T09:48:50.950Z,14.80
2017-07-26T09:51:18.480Z,14.90
2017-07-26T09:53:46.011Z,14.90
2017-07-26T09:56:13.555Z,14.80
2017-07-26T09:58:41.073Z,14.80
2017-07-26T10:01:08.594Z,14.80
2017-07-26T10:03:36.134Z,14.90
2017-07-26T10:06:03.650Z,14.90
2017-07-26T10:08:31.162Z,14.90
2017-07-26T10:10:58.695Z,15.00
2017-07-26T10:13:26.247Z,15.00
2017-07-26T10:15:53.769Z,15.10
2017-07-26T10:18:21.359Z,15.10
2017-07-26T10:20:48.926Z,15.20
2017-07-26T10:23:16.464Z,15.10
2017-07-26T10:25:44.027Z,15.20
2017-07-26T10:28:11.545Z,15.30
2017-07-26T10:30:39.051Z,15.30
2017-07-26T10:33:06.602Z,15.40
2017-07-26T10:35:34.173Z,15.50
2017-07-26T10:38:02.299Z,15.60
2017-07-26T10:40:29.847Z,15.70
2017-07-26T10:42:57.410Z,15.60
2017-07-26T10:45:25.371Z,15.60
2017-07-26T10:47:52.909Z,15.60
2017-07-26T10:50:20.442Z,15.70
2017-07-26T10:52:47.982Z,15.70
2017-07-26T10:55:15.914Z,15.70
2017-07-26T10:57:43.427Z,15.70
2017-07-26T11:00:10.962Z,15.80
2017-07-26T11:02:38.482Z,15.70
2017-07-26T11:05:06.023Z,15.90
2017-07-26T11:07:33.587Z,15.90
2017-07-26T11:10:01.108Z,16.00
2017-07-26T11:12:29.049Z,16.20
2017-07-26T11:14:56.629Z,16.20
2017-07-26T11:17:24.170Z,16.40
2017-07-26T11:19:51.755Z,16.50
2017-07-26T11:22:19.668Z,16.60
2017-07-26T11:24:47.227Z,16.60
2017-07-26T11:27:14.751Z,16.70
2017-07-26T11:29:42.729Z,16.70
2017-07-26T11:32:10.271Z,16.70
2017-07-26T11:34:37.795Z,16.70
2017-07-26T11:37:05.335Z,16.70
2017-07-26T11:39:32.918Z,16.70
2017-07-26T11:42:00.435Z,16.70
2017-07-26T11:44:28.357Z,16.70
2017-07-26T11:46:55.900Z,16.70
2017-07-26T11:49:23.455Z,16.70
2017-07-26T11:51:50.987Z,16.60
2017-07-26T11:54:18.935Z,16.40
2017-07-26T11:56:46.459Z,16.40
2017-07-26T11:59:13.978Z,16.60
2017-07-26T12:01:41.931Z,16.60
2017-07-26T12:04:09.459Z,16.60
2017-07-26T12:06:36.990Z,16.60
2017-07-26T12:09:04.576Z,16.60
2017-07-26T12:11:32.095Z,16.70
2017-07-26T12:13:59.611Z,16.60
2017-07-26T12:16:27.168Z,16.50
2017-07-26T12:18:54.684Z,16.50
2017-07-26T12:21:22.225Z,16.60
2017-07-26T12:23:50.199Z,16.30
2017-07-26T12:26:17.718Z,16.30
2017-07-26T12:28:45.234Z,16.30
2017-07-26T12:31:12.779Z,16.30
2017-07-26T12:33:40.691Z,16.20
2017-07-26T12:36:08.210Z,16.20
2017-07-26T12:38:36.138Z,16.50
2017-07-26T12:41:03.663Z,16.50
2017-07-26T12:43:31.276Z,16.80
2017-07-26T12:45:58.811Z,17.00
2017-07-26T12:48:26.328Z,17.00
2017-07-26T12:50:54.258Z,17.00
2017-07-26T12:53:21.826Z,17.00
2017-07-26T12:55:49.682Z,17.00
2017-07-26T12:58:17.235Z,17.00
2017-07-26T13:00:44.746Z,17.20
2017-07-26T13:03:12.669Z,17.30
2017-07-26T13:05:40.218Z,17.30
2017-07-26T13:08:07.940Z,17.40
2017-07-26T13:10:35.459Z,17.40
2017-07-26T13:13:02.998Z,17.30
2017-07-26T13:15:30.516Z,17.20
2017-07-26T13:17:58.414Z,17.30
2017-07-26T13:20:25.954Z,17.30
2017-07-26T13:22:53.471Z,17.30
2017-07-26T13:25:20.976Z,17.40
2017-07-26T13:27:48.510Z,17.60
2017-07-26T13:30:16.022Z,17.70
2017-07-26T13:32:43.539Z,17.70
2017-07-26T13:35:11.066Z,17.80
2017-07-26T13:37:38.579Z,17.60
2017-07-26T13:40:06.082Z,17.50
2017-07-26T13:42:33.606Z,17.40
2017-07-26T13:45:01.115Z,17.40
2017-07-26T13:47:28.622Z,17.50
2017-07-26T13:49:56.149Z,17.40
2017-07-26T13:52:23.660Z,17.40
2017-07-26T13:54:51.171Z,17.30
2017-07-26T13:57:18.697Z,17.30
2017-07-26T13:59:46.207Z,17.40
2017-07-26T14:02:14.110Z,17.30
2017-07-26T14:04:41.650Z,17.30
2017-07-26T14:07:09.165Z,17.20
2017-07-26T14:09:36.678Z,17.30
2017-07-26T14:12:04.218Z,17.40
2017-07-26T14:14:32.126Z,17.30
2017-07-26T14:16:59.637Z,17.30
2017-07-26T14:19:27.179Z,17.20
2017-07-26T14:21:54.723Z,17.30
2017-07-26T14:24:22.235Z,17.40
2017-07-26T14:26:49.741Z,17.60
2017-07-26T14:29:17.307Z,17.70
2017-07-26T14:31:44.826Z,17.90
2017-07-26T14:34:12.343Z,18.20
2017-07-26T14:36:39.879Z,18.30
2017-07-26T14:39:07.386Z,18.30
2017-07-26T14:41:34.899Z,18.30
2017-07-26T14:44:02.430Z,18.40
2017-07-26T14:46:29.958Z,18.80
2017-07-26T14:48:57.470Z,19.00
2017-07-26T14:51:24.978Z,19.40
2017-07-26T14:53:52.915Z,19.80
2017-07-26T14:56:20.411Z,19.80
2017-07-26T14:58:48.352Z,20.20
2017-07-26T15:01:15.879Z,20.20
2017-07-26T15:03:43.386Z,20.30
2017-07-26T15:06:10.910Z,19.90
2017-07-26T15:08:38.427Z,19.70
2017-07-26T15:11:05.935Z,19.60
2017-07-26T15:13:33.474Z,19.80
2017-07-26T15:16:00.986Z,19.80
2017-07-26T15:18:28.495Z,19.90
2017-07-26T15:20:56.026Z,19.90
2017-07-26T15:23:23.922Z,20.00
2017-07-26T15:25:51.450Z,20.00
2017-07-26T15:28:19.374Z,20.20
2017-07-26T15:30:46.898Z,20.20
2017-07-26T15:33:14.406Z,20.50
2017-07-26T15:35:41.906Z,20.70
2017-07-26T15:38:09.826Z,21.00
2017-07-26T15:40:37.331Z,21.00
2017-07-26T15:43:05.226Z,20.50
2017-07-26T15:45:32.753Z,20.50
2017-07-26T15:48:00.675Z,20.30
2017-07-26T15:50:28.208Z,20.30
2017-07-26T15:52:55.722Z,20.40
2017-07-26T15:55:23.245Z,20.50
2017-07-26T15:57:50.754Z,20.50
2017-07-26T16:00:18.272Z,20.60
2017-07-26T16:02:45.798Z,20.60
2017-07-26T16:05:13.710Z,20.40
2017-07-26T16:07:41.210Z,20.40
2017-07-26T16:10:09.142Z,20.30
2017-07-26T16:12:36.643Z,20.30
2017-07-26T16:15:04.155Z,20.40
2017-07-26T16:17:31.682Z,20.20
2017-07-26T16:19:59.198Z,20.10
2017-07-26T16:22:26.694Z,19.90
2017-07-26T16:24:54.991Z,19.60
2017-07-26T16:27:22.498Z,19.70
2017-07-26T16:29:50.008Z,19.40
2017-07-26T16:32:17.491Z,19.40
2017-07-26T16:34:45.026Z,19.30
2017-07-26T16:37:12.573Z,19.50
2017-07-26T16:39:40.124Z,19.40
2017-07-26T16:42:07.622Z,19.50
2017-07-26T16:44:35.122Z,19.40
2017-07-26T16:47:02.664Z,19.40
2017-07-26T16:49:30.174Z,19.50
2017-07-26T16:51:58.069Z,19.70
2017-07-26T16:54:25.599Z,19.70
2017-07-26T16:56:53.494Z,19.70
2017-07-26T16:59:21.018Z,19.70
2017-07-26T17:01:48.963Z,19.80
2017-07-26T17:04:16.462Z,19.80
2017-07-26T17:06:44.374Z,19.70
2017-07-26T17:09:11.898Z,19.70
2017-07-26T17:11:39.397Z,19.50
2017-07-26T17:14:06.899Z,19.50
2017-07-26T17:16:34.835Z,19.40
2017-07-26T17:19:02.362Z,19.40
2017-07-26T17:21:29.875Z,19.30
2017-07-26T17:23:57.410Z,19.40
2017-07-26T17:26:24.916Z,19.40
2017-07-26T17:28:52.823Z,19.30
2017-07-26T17:31:20.355Z,19.30
2017-07-26T17:33:47.863Z,19.40
2017-07-26T17:36:15.371Z,19.60
2017-07-26T17:38:42.926Z,19.40
2017-07-26T17:41:10.828Z,19.40
2017-07-26T17:43:38.336Z,19.40
2017-07-26T17:46:05.866Z,19.50
2017-07-26T17:48:33.370Z,19.50
2017-07-26T17:51:00.884Z,19.50
2017-07-26T17:53:28.411Z,19.40
2017-07-26T17:55:55.923Z,19.40
2017-07-26T17:58:23.428Z,19.30
2017-07-26T18:00:50.962Z,19.20
2017-07-26T18:03:18.858Z,19.00
2017-07-26T18:05:46.354Z,19.00
2017-07-26T18:08:13.893Z,19.00
2017-07-26T18:10:41.401Z,19.00
2017-07-26T18:13:08.934Z,19.10
2017-07-26T18:15:36.439Z,18.90
2017-07-26T18:18:04.334Z,18.70
2017-07-26T18:20:31.854Z,18.70
2017-07-26T18:22:59.380Z,18.70
2017-07-26T18:25:26.898Z,18.70
2017-07-26T18:27:54.426Z,18.60
2017-07-26T18:30:21.950Z,18.50
2017-07-26T18:32:49.451Z,18.40
2017-07-26T18:35:16.951Z,18.40
2017-07-26T18:37:44.475Z,18.30
2017-07-26T18:40:12.015Z,18.30
2017-07-26T18:42:39.522Z,18.20
2017-07-26T18:45:07.207Z,18.20
2017-07-26T18:47:34.934Z,18.20
2017-07-26T18:50:02.533Z,18.20
2017-07-26T18:52:30.314Z,18.30
2017-07-26T18:54:58.071Z,18.30
2017-07-26T18:57:25.688Z,18.30
2017-07-26T18:59:53.779Z,18.20
2017-07-26T19:02:21.373Z,18.30
2017-07-26T19:04:48.950Z,18.30
2017-07-26T19:07:16.722Z,18.20
2017-07-26T19:09:44.413Z,18.20
2017-07-26T19:12:11.995Z,18.30
2017-07-26T19:14:39.619Z,18.20
2017-07-26T19:17:07.155Z,18.20
2017-07-26T19:19:34.674Z,18.40
2017-07-26T19:22:02.252Z,18.40
2017-07-26T19:24:29.762Z,18.30
2017-07-26T19:26:57.285Z,18.30
2017-07-26T19:29:24.831Z,18.30
2017-07-26T19:31:52.355Z,18.20
2017-07-26T19:34:20.400Z,18.20
2017-07-26T19:36:48.068Z,18.30
2017-07-26T19:39:15.589Z,18.20
2017-07-26T19:41:43.140Z,18.20
2017-07-26T19:44:10.869Z,18.10
2017-07-26T19:46:38.573Z,18.10
2017-07-26T19:49:06.190Z,18.10
2017-07-26T19:51:33.763Z,18.10
2017-07-26T19:54:01.673Z,18.00
2017-07-26T19:56:29.251Z,18.10
2017-07-26T19:58:56.815Z,17.90
2017-07-26T20:01:24.547Z,17.80
2017-07-26T20:03:52.334Z,17.80
2017-07-26T20:06:20.102Z,17.80
2017-07-26T20:08:47.787Z,17.70
2017-07-26T20:11:15.331Z,17.60
2017-07-26T20:13:42.874Z,17.60
2017-07-26T20:16:10.433Z,17.60
2017-07-26T20:18:38.205Z,17.50
2017-07-26T20:21:05.823Z,17.50
2017-07-26T20:23:33.346Z,17.40
2017-07-26T20:26:00.894Z,17.40
2017-07-26T20:28:28.450Z,17.30
2017-07-26T20:30:55.997Z,17.30
2017-07-26T20:33:23.536Z,17.20
2017-07-26T20:35:51.470Z,17.10
2017-07-26T20:38:19.007Z,17.20
2017-07-26T20:40:46.532Z,17.10
2017-07-26T20:43:14.435Z,17.10
2017-07-26T20:45:41.979Z,17.10
2017-07-26T20:48:09.489Z,17.00
2017-07-26T20:50:37.022Z,16.90
2017-07-26T20:53:04.572Z,17.00
2017-07-26T20:55:32.041Z,16.90
2017-07-26T20:57:59.579Z,16.90
2017-07-26T21:00:27.123Z,16.90
2017-07-26T21:02:55.026Z,16.90
2017-07-26T21:05:22.534Z,17.00
2017-07-26T21:07:50.071Z,16.90
2017-07-26T21:10:17.592Z,16.90
2017-07-26T21:12:45.106Z,16.90
2017-07-26T21:15:12.638Z,17.00
2017-07-26T21:17:40.146Z,16.90
2017-07-26T21:20:07.683Z,16.80
2017-07-26T21:22:35.221Z,16.80
2017-07-26T21:25:02.754Z,16.80
2017-07-26T21:27:30.275Z,16.80
2017-07-26T21:29:57.823Z,16.70
2017-07-26T21:32:25.358Z,16.80
2017-07-26T21:34:52.871Z,16.80
2017-07-26T21:37:20.947Z,16.70
2017-07-26T21:39:48.506Z,16.80
2017-07-26T21:42:16.424Z,16.80
2017-07-26T21:44:43.983Z,16.80
2017-07-26T21:47:11.490Z,16.80
2017-07-26T21:49:39.400Z,16.70
2017-07-26T21:52:06.935Z,16.70
2017-07-26T21:54:34.467Z,16.70
2017-07-26T21:57:02.007Z,16.70
2017-07-26T21:59:41.615Z,16.70
2017-07-26T22:02:09.227Z,16.60
2017-07-26T22:04:36.856Z,16.60
2017-07-26T22:07:04.522Z,16.60
2017-07-26T22:09:32.164Z,16.60
2017-07-26T22:11:59.794Z,16.60
2017-07-26T22:14:27.461Z,16.60
2017-07-26T22:16:55.165Z,16.60
2017-07-26T22:19:22.768Z,16.60
2017-07-26T22:21:50.426Z,16.50
2017-07-26T22:24:18.065Z,16.50
2017-07-26T22:26:45.683Z,16.50
2017-07-26T22:29:13.341Z,16.50
2017-07-26T22:31:41.377Z,16.40
2017-07-26T22:34:08.995Z,16.40
2017-07-26T22:36:36.656Z,16.40
2017-07-26T22:39:04.274Z,16.30
2017-07-26T22:41:31.917Z,16.30
2017-07-26T22:43:59.588Z,16.40
2017-07-26T22:46:27.220Z,16.30
2017-07-26T22:48:54.838Z,16.30
2017-07-26T22:51:22.483Z,16.30
2017-07-26T22:53:50.088Z,16.30
2017-07-26T22:56:17.721Z,16.30
2017-07-26T22:58:45.363Z,16.30
2017-07-26T23:01:12.979Z,16.20
2017-07-26T23:03:40.624Z,16.20
2017-07-26T23:06:08.660Z,16.20
2017-07-26T23:08:36.280Z,16.30
2017-07-26T23:11:03.925Z,16.40
2017-07-26T23:13:31.993Z,16.30
2017-07-26T23:15:59.615Z,16.40
2017-07-26T23:18:27.259Z,16.30
2017-07-26T23:20:54.899Z,16.30
2017-07-26T23:23:22.526Z,16.20
2017-07-26T23:25:50.132Z,16.30
2017-07-26T23:28:17.767Z,16.30
2017-07-26T23:30:45.405Z,16.20
2017-07-26T23:33:13.038Z,16.10
2017-07-26T23:35:40.698Z,16.00
2017-07-26T23:38:08.319Z,15.90
2017-07-26T23:40:36.323Z,15.80
2017-07-26T23:43:03.982Z,15.80
2017-07-26T23:45:31.616Z,15.70
2017-07-26T23:47:59.656Z,15.50
2017-07-26T23:50:27.307Z,15.60
2017-07-26T23:52:54.934Z,15.50
2017-07-26T23:55:22.569Z,15.40
2017-07-26T23:57:50.622Z,15.30
